ADDS METAR Data INFO
IDs: Format: Raw Decoded Include TAF

Data at: 2052 UTC 24 Jun 2017

KRYW 242035Z AUTO 09007KT 050V120 10SM CLR 27/20 A3007 RMK AO2 T02700201
KRYW 242015Z AUTO 11010KT 10SM CLR 26/20 A3007 RMK AO2 T02620200
KRYW 241955Z AUTO 09008KT 10SM CLR 26/20 A3010 RMK AO2 T02570196
KRYW 241935Z AUTO 08009KT 10SM -RA CLR 26/20 A3013 RMK AO2 T02550203
KRYW 241915Z AUTO 06008G17KT 10SM SCT120 25/20 A3013 RMK AO2 T02500203
KRYW 241855Z AUTO 05010G16KT 10SM BKN120 25/20 A3013 RMK AO2 T02480202
KRYW 241835Z AUTO 04009G18KT 10SM CLR 25/20 A3014 RMK AO2 T02510202
KRYW 241815Z AUTO 03011G19KT 010V070 10SM CLR 25/20 A3016 RMK AO2 LTG DSNT S T02500202
KRYW 241755Z AUTO 03013G23KT 350V050 10SM CLR 24/20 A3016 RMK AO2 LTG DSNT S 60002 T02420200 10261 20212
KRYW 241735Z AUTO 01015G21KT 10SM SCT110 24/20 A3017 RMK AO2 T02350202
KRYW 241715Z AUTO 01009KT 340V040 10SM SCT011 BKN095 23/21 A3018 RMK AO2 LTG DSNT S T02250207
KRYW 241655Z AUTO 36007KT 10SM -RA SCT011 SCT037 OVC095 22/21 A3018 RMK AO2 LTG DSNT S T02220208
KRYW 241635Z AUTO 36010G16KT 10SM SCT011 SCT035 OVC085 23/21 A3018 RMK AO2 LTG DSNT SE AND S T02250207
KRYW 241615Z AUTO 35010G18KT 10SM SCT009 BKN085 OVC120 23/21 A3017 RMK AO2 LTG DSNT SE AND NW T02260211
KRYW 241555Z AUTO 36009G15KT 10SM SCT095 BKN120 22/21 A3015 RMK AO2 LTG DSNT SE AND W T02230210
KRYW 241535Z AUTO 35005KT 10SM SCT120 22/21 A3013 RMK AO2 LTG DSNT S AND W T02210210
KRYW 241515Z AUTO 03007KT 10SM SCT070 SCT085 22/21 A3012 RMK AO2 LTG DSNT E THRU W T02180208
KRYW 241455Z AUTO 04008KT 10SM SCT040 BKN050 OVC065 21/20 A3012 RMK AO2 LTG DSNT E SE AND W P0002 60002 T02130203
KRYW 241435Z AUTO 05008KT 7SM RA BKN037 OVC049 21/20 A3012 RMK AO2 LTG DSNT ALQS P0001 T02120201
KRYW 241415Z AUTO 05009KT 10SM +RA BKN033 OVC047 22/20 A3012 RMK AO2 LTG DSNT W T02160200
KRYW 241355Z AUTO 06009G25KT 10SM -RA SCT008 SCT019 OVC031 22/20 A3010 RMK AO2 LTG DSNT W THRU N T02200197
KRYW 241335Z AUTO 06009G18KT 030V090 10SM -RA BKN008 BKN016 OVC075 23/21 A3009 RMK AO2 LTG DSNT E AND NW T02270206
KRYW 241315Z AUTO 08007KT 7SM SCT008 SCT025 BKN050 26/24 A3007 RMK AO2 LTG DSNT NW THRU E T02610241
KRYW 241255Z AUTO 10004KT 5SM BR BKN008 BKN015 OVC036 26/24 A3006 RMK AO2 LTG DSNT NW THRU E T02570240
KRYW 241235Z AUTO 10003KT 5SM BR BKN008 OVC013 26/24 A3004 RMK AO2 LTG DSNT E SE AND NW T02560240
KRYW 241215Z AUTO 11003KT 5SM BR BKN008 26/24 A3003 RMK AO2 LTG DSNT N T02550240
KRYW 241155Z AUTO 15004KT 7SM BKN010 26/24 A3002 RMK AO2 LTG DSNT NW THRU NE T02550238 10276 20255
KRYW 241135Z AUTO 16003KT 7SM OVC010 26/24 A3002 RMK AO2 LTG DSNT N AND NE T02550238
KRYW 241115Z AUTO 15005KT 7SM BKN010 BKN029 OVC080 26/24 A3001 RMK AO2 LTG DSNT N T02550236
KRYW 241055Z AUTO 14004KT 7SM BKN012 BKN018 OVC070 26/24 A3001 RMK AO2 T02570235
KRYW 241035Z AUTO 19005KT 7SM BKN014 BKN024 OVC060 26/24 A3000 RMK AO2 LTG DSNT N T02560235
KRYW 241015Z AUTO 18006KT 7SM BKN012 BKN023 BKN060 26/24 A2999 RMK AO2 LTG DSNT N T02570235
KRYW 240955Z AUTO 20004KT 7SM OVC012 26/23 A2998 RMK AO2 T02570234
KRYW 240935Z AUTO 19006KT 7SM BKN012 OVC018 26/23 A2996 RMK AO2 LTG DSNT N T02580233
KRYW 240915Z AUTO 19006KT 140V220 7SM BKN010 OVC018 26/23 A2996 RMK AO2 LTG DSNT N T02580233
KRYW 240855Z AUTO 19005KT 7SM OVC010 26/23 A2997 RMK AO2 LTG DSNT NE T02580233
KRYW 240835Z AUTO 16003KT 10SM BKN012 26/23 A2996 RMK AO2 T02570230
KRYW 240815Z AUTO 17004KT 10SM CLR 26/23 A2996 RMK AO2 T02600230
KRYW 240755Z AUTO 17006KT 10SM CLR 26/23 A2996 RMK AO2 T02610230
KRYW 240735Z AUTO 18006KT 10SM CLR 26/23 A2996 RMK AO2 T02640229
KRYW 240715Z AUTO 19008KT 170V240 10SM CLR 27/23 A2997 RMK AO2 T02660231
KRYW 240655Z AUTO 19006KT 10SM CLR 27/23 A2997 RMK AO2 T02680230
KRYW 240635Z AUTO 18007KT 10SM CLR 27/23 A2997 RMK AO2 T02710231
KRYW 240615Z AUTO 17007KT 150V210 10SM CLR 27/23 A2998 RMK AO2 T02740230
KRYW 240555Z AUTO 16004KT 10SM CLR 28/23 A2997 RMK AO2 T02760228 10365 20276 403800243
KRYW 240535Z AUTO 15007KT 100V190 10SM CLR 28/23 A2997 RMK AO2 T02800228
KRYW 240515Z AUTO 16010G16KT 130V190 10SM CLR 28/23 A2996 RMK AO2 T02830226
KRYW 240455Z AUTO 15009G15KT 10SM CLR 29/22 A2995 RMK AO2 T02890224
KRYW 240435Z AUTO 16006KT 10SM CLR 30/22 A2995 RMK AO2 T02950220
KRYW 240415Z AUTO 15008KT 10SM CLR 30/22 A2994 RMK AO2 T02970217
KRYW 240355Z AUTO 15007KT 10SM CLR 30/22 A2993 RMK AO2 T03020216
KRYW 240335Z AUTO 15007KT 10SM CLR 31/21 A2992 RMK AO2 T03080214
KRYW 240315Z AUTO 14013G20KT 10SM CLR 31/21 A2989 RMK AO2 T03130210
KRYW 240255Z AUTO 14008G16KT 10SM CLR 32/21 A2987 RMK AO2 T03170211
KRYW 240235Z AUTO 14009G14KT 10SM CLR 32/21 A2986 RMK AO2 T03240208
KRYW 240215Z AUTO 14007KT 10SM CLR 33/21 A2985 RMK AO2 T03250208
KRYW 240155Z AUTO 12006KT 10SM CLR 33/21 A2984 RMK AO2 T03300206
KRYW 240135Z AUTO 13006KT 10SM CLR 33/21 A2983 RMK AO2 T03320205
KRYW 240115Z AUTO 00000KT 10SM CLR 34/21 A2983 RMK AO2 T03370205
KRYW 240055Z AUTO 13005KT 10SM CLR 35/20 A2982 RMK AO2 T03480200
KRYW 240035Z AUTO 13005KT 10SM CLR 36/20 A2982 RMK AO2 T03550200
KRYW 240015Z AUTO 12006KT 10SM CLR 36/20 A2981 RMK AO2 T03600199
KRYW 232355Z AUTO 14005KT 10SM CLR 37/20 A2980 RMK AO2 T03650200 10380 20351
KRYW 232335Z AUTO 15007KT 10SM CLR 37/19 A2980 RMK AO2 T03700189
KRYW 232315Z AUTO 12006KT 10SM CLR 37/18 A2980 RMK AO2 T03720184
KRYW 232255Z AUTO 14006KT 10SM CLR 37/19 A2980 RMK AO2 T03740189
KRYW 232235Z AUTO 12007KT 10SM CLR 38/19 A2981 RMK AO2 T03750189
KRYW 232215Z AUTO 14008KT 10SM CLR 38/19 A2981 RMK AO2 T03750190
KRYW 232155Z AUTO 11010KT 10SM CLR 38/19 A2981 RMK AO2 T03800192
KRYW 232135Z AUTO 16007KT 10SM CLR 38/20 A2981 RMK AO2 T03800199
KRYW 232115Z AUTO 14007KT 10SM CLR 38/20 A2982 RMK AO2 T03800198
KRYW 232055Z AUTO 13006G14KT 10SM CLR 38/20 A2982 RMK AO2 T03780201
KRYW 232035Z AUTO 15007G15KT 110V190 10SM CLR 38/20 A2982 RMK AO2 T03760204
KRYW 232015Z AUTO 13009G15KT 10SM CLR 37/20 A2982 RMK AO2 T03720203
KRYW 231955Z AUTO 16009G14KT 10SM CLR 37/20 A2982 RMK AO2 T03720201
KRYW 231935Z AUTO 15007KT 110V200 10SM CLR 37/20 A2983 RMK AO2 T03710203
KRYW 231915Z AUTO 22005G15KT 10SM CLR 37/20 A2983 RMK AO2 T03700202
KRYW 231855Z AUTO 18007G15KT 150V210 10SM CLR 37/20 A2983 RMK AO2 T03650199
KRYW 231835Z AUTO 18005KT 10SM CLR 36/20 A2984 RMK AO2 T03570200
KRYW 231815Z AUTO 16007KT 140V210 10SM CLR 36/20 A2984 RMK AO2 T03570200
KRYW 231755Z AUTO 20011G14KT 10SM CLR 35/20 A2985 RMK AO2 T03540197 10354 20245
KRYW 231735Z AUTO 22009G14KT 10SM CLR 34/20 A2985 RMK AO2 T03440197
KRYW 231715Z AUTO 20008KT 170V230 10SM CLR 34/20 A2985 RMK AO2 T03420202
KRYW 231655Z AUTO 20008G14KT 10SM CLR 33/20 A2985 RMK AO2 T03330204
KRYW 231635Z AUTO 18009G15KT 10SM CLR 33/21 A2984 RMK AO2 T03270208
KRYW 231615Z AUTO 21006KT 10SM CLR 33/21 A2985 RMK AO2 T03250213
KRYW 231555Z AUTO 21009G14KT 10SM CLR 32/21 A2984 RMK AO2 T03180212
KRYW 231535Z AUTO 19008G16KT 160V220 10SM CLR 31/22 A2984 RMK AO2 T03100218
KRYW 231515Z AUTO 19007KT 10SM CLR 31/22 A2985 RMK AO2 T03050219
KRYW 231455Z AUTO 19008KT 10SM CLR 30/22 A2985 RMK AO2 T02970221
KRYW 231435Z AUTO 19006G15KT 10SM CLR 29/22 A2985 RMK AO2 T02890223
KRYW 231415Z AUTO 19006KT 10SM CLR 28/23 A2984 RMK AO2 T02840229
KRYW 231355Z AUTO 19008G14KT 170V230 10SM CLR 28/23 A2983 RMK AO2 T02750232
KRYW 231335Z AUTO 18006G14KT 10SM CLR 27/23 A2982 RMK AO2 T02690232
KRYW 231315Z AUTO 18009KT 10SM CLR 26/23 A2981 RMK AO2 T02620233
KRYW 231255Z AUTO 18005KT 10SM CLR 26/23 A2981 RMK AO2 T02550233
KRYW 231235Z AUTO 18006KT 10SM CLR 25/23 A2980 RMK AO2 T02480232
KRYW 231215Z AUTO 19006KT 10SM CLR 25/23 A2980 RMK AO2 T02450232
KRYW 231155Z AUTO 18005KT 7SM CLR 24/23 A2979 RMK AO2 T02440231 10276 20243
KRYW 231135Z AUTO 17006KT 10SM CLR 25/23 A2979 RMK AO2 T02450230
KRYW 231115Z AUTO 17006KT 25/23 A2978 RMK AO2 T02450230 PWINO
KRYW 231055Z AUTO 18006KT 10SM CLR 25/23 A2978 RMK AO2 T02460230
KRYW 231035Z AUTO 18005KT 10SM CLR 25/23 A2978 RMK AO2 T02480230
KRYW 231015Z AUTO 18005KT 10SM CLR 25/23 A2978 RMK AO2 T02500230
KRYW 230955Z AUTO 19005KT 10SM CLR 25/23 A2978 RMK AO2 T02510230
KRYW 230935Z AUTO 18004KT 10SM CLR 25/23 A2978 RMK AO2 T02520230
KRYW 230915Z AUTO 16004KT 10SM CLR 26/23 A2978 RMK AO2 T02550230
KRYW 230855Z AUTO 16005KT 10SM CLR 26/23 A2977 RMK AO2 T02560230


Page loaded:  20:52 UTC  |   01:52 PM Pacific  |   02:52 PM Mountain  |   03:52 PM Central  |   04:52 PM Eastern

 

ADVISORIES

FORECASTS

FORECASTS

OBSERVATIONS

USER TOOLS

ABOUT US